メインページ
METAR-TAF:

METAR-TAF

空港 :

南紀白浜空港

田辺, 日本

緯度: 33-44N, 経度: 135-23E, 海抜: 105m

現時点の気象観測

当レポートは23分前の07:00(UTC)に作成
東/南東の風 10kt、から南/南東の間で変化する
気温 30°C
湿度 66%
気圧 1008 hPa
視程10km以上
高度2000ftの雲はほとんどない
高度2500ftの雲は散在している
高度5000ftの千切れ雲あり

METAR: RJBD 200700Z 11010KT 080V150 9999 FEW020 SCT025 BKN050 30/23 Q1008

時間: 16:23 (07:23 UTC)


TAF: 見つかりません

4,000以上の空港の気象観測と天気予報(METAR報とTAF報)

利用可能な観測所は地図上に黄色い丸と赤い丸で示す。

丸の上にカーソルを重ねると観測所名を参照できる。

次にクリックすると気象観測と天気予報を参照できる。

マップの切り替え:黒色「×」印の緑ボタンをクリックして拡大、「-」印の緑ボタンをクリックして縮小、緑色の三角印をクリックして隣りの地図に切り替え


METAR-TAF: